Time;durP1;ratioP1;P1;durP2;ratioP2;P2;SDS_P1;SDS_P2;PMS_P1;PMS_P2;Temp;Humidity;BMP_temperature;BMP_pressure;BME280_temperature;BME280_humidity;BME280_pressure;Samples;Min_cycle;Max_cycle;Signal;HPM_P1;HPM_P2
2023/03/24 00:01:13;;;;;;;2.63;2.00;;;13.30;99.90;;;;;;5052576;28;20674;-58
2023/03/24 00:03:39;;;;;;;3.28;2.00;;;13.30;99.90;;;;;;5053505;28;20274;-58
2023/03/24 00:06:06;;;;;;;3.28;2.08;;;13.30;99.90;;;;;;5053817;28;20186;-58
2023/03/24 00:08:36;;;;;;;3.80;2.38;;;13.40;99.90;;;;;;5053756;28;20229;-58
2023/03/24 00:11:06;;;;;;;2.80;1.90;;;13.30;99.90;;;;;;5053632;28;20235;-58
2023/03/24 00:13:37;;;;;;;1.98;1.77;;;13.30;99.90;;;;;;5053525;28;20716;-58
2023/03/24 00:16:09;;;;;;;2.63;1.80;;;13.30;99.90;;;;;;5053424;28;20193;-58
2023/03/24 00:18:36;;;;;;;2.60;2.00;;;13.30;99.90;;;;;;5053358;28;20325;-58
2023/03/24 00:21:03;;;;;;;2.90;1.95;;;13.30;99.90;;;;;;5053561;28;20179;-58
2023/03/24 00:23:33;;;;;;;2.90;2.05;;;13.30;99.90;;;;;;5053487;28;20230;-58
2023/03/24 00:26:17;;;;;;;4.72;2.42;;;13.20;99.90;;;;;;5053363;28;20723;-58
2023/03/24 00:28:45;;;;;;;2.78;2.15;;;13.30;99.90;;;;;;5053259;28;20187;-58
2023/03/24 00:31:14;;;;;;;4.07;2.38;;;13.20;99.90;;;;;;5053338;28;20195;-58
2023/03/24 00:33:42;;;;;;;3.42;2.00;;;13.10;99.90;;;;;;5053385;28;20510;-58
2023/03/24 00:36:10;;;;;;;3.05;2.20;;;13.20;99.90;;;;;;5053200;28;20202;-58
2023/03/24 00:38:37;;;;;;;3.08;2.47;;;13.20;99.90;;;;;;5053144;28;20167;-58
2023/03/24 00:41:06;;;;;;;3.80;2.33;;;13.30;99.90;;;;;;5053048;28;20176;-58
2023/03/24 00:43:32;;;;;;;3.63;2.05;;;13.30;99.90;;;;;;5053266;28;20171;-58
2023/03/24 00:46:04;;;;;;;2.88;2.13;;;13.40;99.90;;;;;;5053193;28;20308;-58
2023/03/24 00:48:31;;;;;;;4.43;2.47;;;13.30;99.90;;;;;;5053235;28;20530;-58
2023/03/24 00:50:59;;;;;;;4.50;2.40;;;13.40;99.90;;;;;;5052985;28;20199;-58
2023/03/24 00:53:28;;;;;;;2.45;2.25;;;13.40;99.90;;;;;;5052976;28;20175;-58
2023/03/24 00:55:54;;;;;;;3.83;2.40;;;13.30;99.90;;;;;;5053029;28;20167;-58
2023/03/24 00:58:21;;;;;;;3.45;2.40;;;13.30;99.90;;;;;;5052785;28;20636;-58
2023/03/24 01:00:52;;;;;;;3.90;2.20;;;13.30;99.90;;;;;;5055502;28;20250;-58
2023/03/24 01:03:21;;;;;;;2.92;2.25;;;13.30;99.90;;;;;;5057001;28;20171;-58
2023/03/24 01:05:47;;;;;;;4.30;2.47;;;13.40;99.90;;;;;;5056939;28;20203;-58
2023/03/24 01:08:20;;;;;;;5.07;2.75;;;13.40;99.90;;;;;;5057193;28;20233;-58
2023/03/24 01:10:52;;;;;;;3.00;2.35;;;13.40;99.90;;;;;;5057052;28;20206;-58
2023/03/24 01:13:20;;;;;;;3.50;2.15;;;13.40;99.90;;;;;;5056863;28;20179;-58
2023/03/24 01:15:46;;;;;;;2.45;2.20;;;13.40;99.90;;;;;;5056784;28;20229;-58
2023/03/24 01:18:13;;;;;;;3.58;2.45;;;13.40;99.90;;;;;;5056716;28;20175;-58
2023/03/24 01:20:40;;;;;;;2.78;2.40;;;13.40;99.90;;;;;;5056632;28;20506;-58
2023/03/24 01:23:07;;;;;;;3.20;2.22;;;13.40;99.90;;;;;;5056727;28;20226;-58
2023/03/24 01:25:35;;;;;;;3.17;2.40;;;13.40;99.90;;;;;;5056785;28;20178;-58
2023/03/24 01:28:01;;;;;;;3.28;2.22;;;13.40;99.90;;;;;;5056709;28;20262;-58
2023/03/24 01:30:28;;;;;;;2.40;2.13;;;13.30;99.90;;;;;;5055419;28;20248;-59
2023/03/24 01:32:55;;;;;;;4.80;2.40;;;13.30;99.90;;;;;;5056495;28;20543;-58
2023/03/24 01:35:22;;;;;;;3.83;2.63;;;13.20;99.90;;;;;;5056402;28;20628;-58
2023/03/24 01:37:48;;;;;;;3.35;2.35;;;13.30;99.90;;;;;;5056392;28;20172;-58
2023/03/24 01:40:24;;;;;;;5.03;2.60;;;13.30;99.90;;;;;;5056347;28;20667;-58
2023/03/24 01:42:50;;;;;;;4.13;2.70;;;13.20;99.90;;;;;;5056465;28;20655;-58
2023/03/24 01:45:38;;;;;;;4.55;2.90;;;13.20;99.90;;;;;;5056291;28;20644;-58
2023/03/24 01:48:21;;;;;;;3.03;2.45;;;13.10;99.90;;;;;;5056213;28;20603;-58
2023/03/24 01:51:19;;;;;;;3.20;2.80;;;13.10;99.90;;;;;;5056318;28;20260;-58
2023/03/24 01:53:59;;;;;;;4.10;3.05;;;13.00;99.90;;;;;;5056213;28;20175;-58
2023/03/24 01:56:27;;;;;;;3.33;2.40;;;13.00;99.90;;;;;;5056338;28;20613;-58
2023/03/24 01:58:58;;;;;;;2.30;2.10;;;13.00;99.90;;;;;;5056226;28;20175;-58
2023/03/24 02:01:28;;;;;;;2.00;1.70;;;12.70;99.90;;;;;;5056175;28;20174;-58
2023/03/24 02:03:56;;;;;;;3.63;1.60;;;12.80;99.90;;;;;;5055973;28;20175;-58
2023/03/24 02:06:24;;;;;;;3.28;1.63;;;12.80;99.90;;;;;;5055704;28;20202;-58
2023/03/24 02:08:52;;;;;;;2.45;1.50;;;12.80;99.90;;;;;;5055988;28;20192;-58
2023/03/24 02:11:19;;;;;;;1.63;1.20;;;12.90;99.90;;;;;;5054673;28;20199;-58
2023/03/24 02:13:45;;;;;;;2.13;1.00;;;12.70;99.90;;;;;;5055859;28;20739;-58
2023/03/24 02:16:45;;;;;;;2.35;1.00;;;12.70;99.90;;;;;;5055762;28;20183;-58
2023/03/24 02:19:37;;;;;;;2.88;1.00;;;12.50;99.90;;;;;;5055542;28;20526;-58
2023/03/24 02:22:26;;;;;;;1.67;1.00;;;12.50;99.90;;;;;;5055573;28;20648;-58
2023/03/24 02:24:58;;;;;;;1.80;1.20;;;12.40;99.90;;;;;;5036336;28;20206;-58
2023/03/24 02:27:51;;;;;;;2.22;0.95;;;12.20;99.90;;;;;;5055392;28;20171;-58
2023/03/24 02:30:39;;;;;;;2.15;1.00;;;12.20;99.90;;;;;;5055580;28;20195;-58
2023/03/24 02:33:23;;;;;;;3.58;1.30;;;12.00;99.90;;;;;;5055440;28;20186;-58
2023/03/24 02:36:32;;;;;;;5.78;1.30;;;12.10;99.90;;;;;;5055253;28;20172;-58
2023/03/24 02:39:36;;;;;;;2.85;1.40;;;12.10;99.90;;;;;;5049697;28;20541;-58
2023/03/24 02:42:27;;;;;;;4.85;1.98;;;12.10;99.90;;;;;;5055133;28;20167;-58
2023/03/24 02:45:26;;;;;;;3.53;1.25;;;12.00;99.90;;;;;;5055179;28;20171;-59
2023/03/24 02:48:07;;;;;;;2.25;1.25;;;12.00;99.90;;;;;;5055182;28;20183;-58
2023/03/24 02:50:40;;;;;;;4.93;1.30;;;11.90;99.90;;;;;;5055044;28;20203;-58
2023/03/24 02:53:21;;;;;;;3.55;1.30;;;11.80;99.90;;;;;;5055220;28;20167;-58
2023/03/24 02:56:19;;;;;;;6.15;1.70;;;11.80;99.90;;;;;;5055046;28;20221;-58
2023/03/24 02:58:57;;;;;;;4.32;1.67;;;11.80;99.90;;;;;;5035368;28;20190;-58
2023/03/24 03:01:32;;;;;;;3.60;1.85;;;11.60;99.90;;;;;;5055103;28;20175;-58
2023/03/24 03:04:04;;;;;;;4.75;1.80;;;11.60;99.90;;;;;;5054965;28;20170;-58
2023/03/24 03:06:33;;;;;;;5.43;1.75;;;11.40;99.90;;;;;;5054963;28;20223;-58
2023/03/24 03:09:06;;;;;;;2.92;1.50;;;11.50;99.90;;;;;;5054635;28;20175;-58
2023/03/24 03:11:32;;;;;;;7.13;1.88;;;11.50;99.90;;;;;;5054779;28;20298;-58
2023/03/24 03:14:24;;;;;;;6.50;1.60;;;11.40;99.90;;;;;;5054846;28;20233;-58
2023/03/24 03:16:52;;;;;;;5.50;1.70;;;11.40;99.90;;;;;;5049641;28;20182;-58
2023/03/24 03:19:22;;;;;;;4.15;1.80;;;11.40;99.90;;;;;;5054415;28;20185;-58
2023/03/24 03:21:49;;;;;;;6.15;1.95;;;11.40;99.90;;;;;;5054319;28;20171;-58
2023/03/24 03:24:38;;;;;;;7.05;2.30;;;11.40;99.90;;;;;;5054146;28;20664;-58
2023/03/24 03:27:09;;;;;;;4.28;1.95;;;11.40;99.90;;;;;;5054424;28;20168;-58
2023/03/24 03:29:38;;;;;;;5.20;1.92;;;11.30;99.90;;;;;;5054291;28;20172;-58
2023/03/24 03:32:08;;;;;;;6.82;2.13;;;11.30;99.90;;;;;;5054250;28;20535;-58
2023/03/24 03:34:34;;;;;;;5.05;2.00;;;11.40;99.90;;;;;;5054912;28;20164;-58
2023/03/24 03:37:23;;;;;;;4.63;2.03;;;11.30;99.90;;;;;;5054354;28;20179;-58
2023/03/24 03:39:57;;;;;;;8.75;1.98;;;11.30;99.90;;;;;;5034652;28;20237;-58
2023/03/24 03:42:23;;;;;;;4.93;2.20;;;11.30;99.90;;;;;;5054108;28;20262;-58
2023/03/24 03:44:49;;;;;;;4.53;2.15;;;11.30;99.90;;;;;;5054271;28;20179;-58
2023/03/24 03:47:15;;;;;;;7.90;2.15;;;11.30;99.90;;;;;;5054119;28;20220;-58
2023/03/24 03:49:41;;;;;;;8.05;2.20;;;11.30;99.90;;;;;;5053962;28;20705;-59
2023/03/24 03:52:07;;;;;;;6.18;2.15;;;11.40;99.90;;;;;;5053974;28;20179;-58
2023/03/24 03:54:34;;;;;;;6.30;2.45;;;11.30;99.90;;;;;;5053967;28;20186;-58
2023/03/24 03:57:00;;;;;;;6.28;2.20;;;11.20;99.90;;;;;;5053685;28;20771;-58
2023/03/24 03:59:32;;;;;;;6.25;1.95;;;11.10;99.90;;;;;;5053660;28;20529;-58
2023/03/24 04:02:03;;;;;;;5.53;1.95;;;11.10;99.90;;;;;;5053827;28;20168;-58
2023/03/24 04:05:13;;;;;;;8.73;2.30;;;11.10;99.90;;;;;;5053713;28;20179;-58
2023/03/24 04:07:57;;;;;;;7.35;2.17;;;11.20;99.90;;;;;;5053507;28;20160;-58
2023/03/24 04:10:32;;;;;;;8.30;2.70;;;11.10;99.90;;;;;;5053735;28;20357;-58
2023/03/24 04:13:10;;;;;;;11.70;2.72;;;11.00;99.90;;;;;;5053544;28;20535;-58
2023/03/24 04:15:44;;;;;;;9.75;2.47;;;10.80;99.90;;;;;;5053501;28;20175;-58
2023/03/24 04:18:19;;;;;;;10.80;2.90;;;10.90;99.90;;;;;;5053449;28;20249;-58
2023/03/24 04:21:05;;;;;;;6.13;2.25;;;10.90;99.90;;;;;;5053603;28;20170;-58
2023/03/24 04:23:56;;;;;;;9.65;2.92;;;11.00;99.90;;;;;;5053108;28;20222;-58
2023/03/24 04:26:33;;;;;;;10.45;2.70;;;11.10;99.90;;;;;;5053394;28;20179;-58
2023/03/24 04:29:04;;;;;;;6.00;2.35;;;11.00;99.90;;;;;;5053583;28;20170;-58
2023/03/24 04:31:36;;;;;;;10.60;2.40;;;11.00;99.90;;;;;;5053397;28;20253;-58
2023/03/24 04:34:28;;;;;;;10.05;2.40;;;10.70;99.90;;;;;;5052750;28;20636;-57
2023/03/24 04:37:05;;;;;;;8.45;2.42;;;10.70;99.90;;;;;;5053077;28;20624;-57
2023/03/24 04:39:37;;;;;;;12.00;2.90;;;10.80;99.90;;;;;;5053400;28;20164;-58
2023/03/24 04:42:08;;;;;;;7.47;2.45;;;10.70;99.90;;;;;;5053203;28;20170;-58
2023/03/24 04:44:35;;;;;;;10.52;2.80;;;10.70;99.90;;;;;;5053175;28;20235;-58
2023/03/24 04:47:03;;;;;;;9.00;2.65;;;10.70;99.90;;;;;;5053004;28;20642;-58
2023/03/24 04:49:29;;;;;;;9.43;3.22;;;10.70;99.90;;;;;;5053173;28;20163;-58
2023/03/24 04:51:55;;;;;;;10.15;3.00;;;10.90;99.90;;;;;;5053208;28;20788;-58
2023/03/24 04:54:22;;;;;;;9.65;2.80;;;10.90;99.90;;;;;;5053073;28;20221;-58
2023/03/24 04:56:52;;;;;;;10.20;2.90;;;10.90;99.90;;;;;;5053050;28;20182;-58
2023/03/24 04:59:18;;;;;;;10.20;3.00;;;10.90;99.90;;;;;;5053078;28;20174;-58
2023/03/24 05:01:51;;;;;;;14.40;3.30;;;10.90;99.90;;;;;;5052860;28;20217;-58
2023/03/24 05:04:18;;;;;;;10.68;2.70;;;10.90;99.90;;;;;;5053072;28;20175;-58
2023/03/24 05:06:45;;;;;;;14.48;2.65;;;10.80;99.90;;;;;;5053015;28;20647;-58
2023/03/24 05:09:12;;;;;;;9.05;2.80;;;10.80;99.90;;;;;;5052807;28;20278;-58
2023/03/24 05:11:38;;;;;;;12.52;3.00;;;10.80;99.90;;;;;;5052791;28;20214;-58
2023/03/24 05:14:03;;;;;;;10.40;2.90;;;10.80;99.90;;;;;;5052748;28;20171;-58
2023/03/24 05:16:29;;;;;;;7.32;2.90;;;10.60;99.90;;;;;;5052681;28;20179;-58
2023/03/24 05:18:55;;;;;;;12.18;3.08;;;10.50;99.90;;;;;;5052992;28;20198;-58
2023/03/24 05:21:20;;;;;;;9.05;2.95;;;10.50;99.90;;;;;;5052956;28;20525;-58
2023/03/24 05:23:46;;;;;;;10.90;3.35;;;10.50;99.90;;;;;;5052570;28;20231;-58
2023/03/24 05:26:12;;;;;;;11.18;2.65;;;10.60;99.90;;;;;;5052738;28;20215;-58
2023/03/24 05:28:37;;;;;;;10.02;2.95;;;10.70;99.90;;;;;;5052695;28;20543;-58
2023/03/24 05:31:03;;;;;;;12.98;2.90;;;10.70;99.90;;;;;;5052507;28;20623;-58
2023/03/24 05:33:29;;;;;;;16.35;3.58;;;10.60;99.90;;;;;;5052774;28;20194;-58
2023/03/24 05:35:54;;;;;;;12.00;3.40;;;10.70;99.90;;;;;;5052787;28;20183;-58
2023/03/24 05:38:20;;;;;;;11.57;3.35;;;10.80;99.90;;;;;;5052566;28;20240;-58
2023/03/24 05:40:48;;;;;;;13.52;3.83;;;10.80;99.90;;;;;;5052776;28;20175;-58
2023/03/24 05:43:14;;;;;;;9.98;3.38;;;10.80;99.90;;;;;;5052511;28;20176;-58
2023/03/24 05:45:40;;;;;;;12.35;3.30;;;10.80;99.90;;;;;;5052918;28;20629;-59
2023/03/24 05:48:06;;;;;;;10.80;3.10;;;10.80;99.90;;;;;;5056359;28;20179;-58
2023/03/24 05:50:32;;;;;;;9.98;3.00;;;10.70;99.90;;;;;;5055980;28;20260;-58
2023/03/24 05:52:58;;;;;;;13.20;2.80;;;10.60;99.90;;;;;;5056023;28;20218;-58
2023/03/24 05:55:24;;;;;;;11.30;3.08;;;10.50;99.90;;;;;;5056457;28;20207;-58
2023/03/24 05:57:50;;;;;;;11.73;2.92;;;10.50;99.90;;;;;;5056117;28;20703;-58
2023/03/24 06:00:16;;;;;;;11.70;2.75;;;10.50;99.90;;;;;;5055381;28;20191;-56
2023/03/24 06:02:44;;;;;;;11.38;3.40;;;10.40;99.90;;;;;;5055581;28;20186;-59
2023/03/24 06:05:10;;;;;;;10.82;3.33;;;10.40;99.90;;;;;;5056032;28;20257;-58
2023/03/24 06:07:37;;;;;;;10.80;3.30;;;10.40;99.90;;;;;;5055943;28;20179;-58
2023/03/24 06:10:06;;;;;;;8.30;3.00;;;10.40;99.90;;;;;;5055809;28;20206;-58
2023/03/24 06:12:32;;;;;;;13.90;3.22;;;10.60;99.90;;;;;;5056092;28;20178;-59
2023/03/24 06:14:59;;;;;;;10.68;3.33;;;10.70;99.90;;;;;;5055712;28;20206;-59
2023/03/24 06:17:28;;;;;;;12.43;3.25;;;10.80;99.90;;;;;;5055635;28;20592;-58
2023/03/24 06:20:02;;;;;;;13.90;3.80;;;10.80;99.90;;;;;;5055925;28;20164;-58
2023/03/24 06:22:30;;;;;;;10.77;3.50;;;10.90;99.90;;;;;;5055505;28;20171;-58
2023/03/24 06:24:57;;;;;;;11.10;3.53;;;11.00;99.90;;;;;;5055692;28;20207;-58
2023/03/24 06:27:28;;;;;;;14.65;3.97;;;11.10;99.90;;;;;;5055447;28;20179;-58
2023/03/24 06:29:58;;;;;;;9.68;3.20;;;11.10;99.90;;;;;;5055379;28;20241;-58
2023/03/24 06:32:25;;;;;;;9.50;2.92;;;11.20;99.90;;;;;;5055441;28;20225;-58
2023/03/24 06:34:50;;;;;;;9.57;2.90;;;11.10;99.90;;;;;;5055464;28;20179;-58
2023/03/24 06:37:16;;;;;;;12.25;3.50;;;11.30;99.90;;;;;;5054495;28;20193;-59
2023/03/24 06:39:42;;;;;;;12.05;3.00;;;11.40;99.90;;;;;;5054783;28;20179;-59
2023/03/24 06:42:08;;;;;;;8.82;3.40;;;11.50;99.90;;;;;;5055092;28;20229;-58
2023/03/24 06:44:34;;;;;;;13.02;3.60;;;11.50;99.90;;;;;;5055338;28;20202;-58
2023/03/24 06:47:00;;;;;;;11.23;3.38;;;11.50;99.90;;;;;;5055003;28;20181;-58
2023/03/24 06:49:26;;;;;;;7.63;2.92;;;11.40;99.90;;;;;;5055255;28;20575;-58
2023/03/24 06:51:51;;;;;;;12.60;3.40;;;11.40;99.90;;;;;;5054236;28;20222;-58
2023/03/24 06:54:17;;;;;;;10.88;3.28;;;11.40;99.90;;;;;;5054932;28;20228;-58
2023/03/24 06:56:43;;;;;;;8.75;3.35;;;11.50;99.90;;;;;;5055387;28;20258;-58
2023/03/24 06:59:09;;;;;;;10.52;3.42;;;11.50;99.90;;;;;;5054517;28;20321;-58
2023/03/24 07:01:36;;;;;;;14.27;3.20;;;11.80;99.90;;;;;;5055023;28;20648;-58
2023/03/24 07:04:03;;;;;;;7.50;2.80;;;11.90;99.90;;;;;;5054867;28;20203;-59
2023/03/24 07:06:29;;;;;;;11.73;2.88;;;11.90;99.90;;;;;;5054853;28;20182;-59
2023/03/24 07:08:55;;;;;;;9.07;3.05;;;11.90;99.90;;;;;;5054734;28;20168;-58
2023/03/24 07:11:22;;;;;;;10.68;3.75;;;12.00;99.90;;;;;;5054841;28;20260;-58
2023/03/24 07:13:48;;;;;;;10.73;3.40;;;12.00;99.90;;;;;;5054779;28;20628;-58
2023/03/24 07:16:13;;;;;;;9.88;3.42;;;11.90;99.90;;;;;;5055047;28;20178;-58
2023/03/24 07:18:39;;;;;;;9.13;3.00;;;11.90;99.90;;;;;;5054584;28;20225;-58
2023/03/24 07:21:06;;;;;;;12.40;3.00;;;11.90;99.90;;;;;;5054519;28;20249;-58
2023/03/24 07:23:32;;;;;;;9.25;3.15;;;12.00;99.90;;;;;;5054077;28;20270;-58
2023/03/24 07:25:58;;;;;;;12.48;3.22;;;11.90;99.90;;;;;;5054706;28;20174;-58
2023/03/24 07:28:24;;;;;;;8.43;2.90;;;11.80;99.90;;;;;;5054527;28;20168;-58
2023/03/24 07:30:50;;;;;;;8.68;3.22;;;11.80;99.90;;;;;;5052987;28;20222;-58
2023/03/24 07:33:16;;;;;;;12.30;3.00;;;11.80;99.90;;;;;;5054301;28;20184;-58
2023/03/24 07:35:42;;;;;;;11.77;2.75;;;11.90;99.90;;;;;;5054302;28;20168;-59
2023/03/24 07:38:09;;;;;;;10.48;3.35;;;11.80;99.90;;;;;;5054126;28;20179;-59
2023/03/24 07:40:35;;;;;;;13.18;3.45;;;11.80;99.90;;;;;;5054358;28;20171;-58
2023/03/24 07:43:04;;;;;;;10.52;2.63;;;12.00;99.90;;;;;;5054214;28;20183;-58
2023/03/24 07:45:30;;;;;;;12.93;3.65;;;12.10;99.90;;;;;;5054049;28;20176;-58
2023/03/24 07:48:00;;;;;;;12.30;3.05;;;12.20;99.90;;;;;;5054052;28;20178;-59
2023/03/24 07:50:27;;;;;;;9.10;3.00;;;12.30;99.90;;;;;;5053933;28;20207;-58
2023/03/24 07:52:53;;;;;;;6.63;2.25;;;12.30;99.90;;;;;;5053784;28;20186;-58
2023/03/24 07:55:19;;;;;;;10.73;2.67;;;12.30;99.90;;;;;;5054019;28;20183;-58
2023/03/24 07:57:48;;;;;;;8.98;2.80;;;12.30;99.90;;;;;;5053949;28;20211;-58
2023/03/24 08:00:16;;;;;;;9.10;3.08;;;12.30;99.90;;;;;;5053801;28;20481;-58
2023/03/24 08:02:48;;;;;;;8.88;2.47;;;12.30;99.90;;;;;;5053733;28;20175;-58
2023/03/24 08:05:14;;;;;;;8.27;2.70;;;12.20;99.90;;;;;;5053643;28;20171;-58
2023/03/24 08:07:43;;;;;;;9.15;2.90;;;12.20;99.90;;;;;;5053420;28;20237;-58
2023/03/24 08:10:14;;;;;;;9.40;2.78;;;12.30;99.90;;;;;;5053461;28;20283;-58
2023/03/24 08:12:40;;;;;;;8.85;2.85;;;12.40;99.90;;;;;;5053447;28;20194;-58
2023/03/24 08:15:08;;;;;;;7.95;2.38;;;12.70;99.90;;;;;;5053492;28;20183;-59
2023/03/24 08:17:34;;;;;;;10.02;2.72;;;12.80;99.90;;;;;;5053512;28;20171;-58
2023/03/24 08:20:00;;;;;;;11.80;3.33;;;12.70;99.90;;;;;;5053359;28;20267;-59
2023/03/24 08:22:26;;;;;;;10.27;2.95;;;12.70;99.90;;;;;;5053376;28;20198;-57
2023/03/24 08:24:52;;;;;;;8.98;2.72;;;12.90;99.90;;;;;;5053509;28;20171;-58
2023/03/24 08:27:18;;;;;;;8.48;2.83;;;13.10;99.90;;;;;;5053388;28;20179;-58
2023/03/24 08:29:43;;;;;;;9.60;2.97;;;13.20;99.90;;;;;;5053449;28;20616;-58
2023/03/24 08:32:09;;;;;;;10.07;3.00;;;13.30;99.90;;;;;;5053413;28;20633;-58
2023/03/24 08:34:35;;;;;;;8.80;2.58;;;13.40;99.90;;;;;;5053130;28;20668;-58
2023/03/24 08:37:01;;;;;;;8.38;2.47;;;13.40;99.90;;;;;;5053338;28;20175;-58
2023/03/24 08:39:27;;;;;;;10.15;2.50;;;13.30;99.90;;;;;;5053479;28;20171;-58
2023/03/24 08:41:53;;;;;;;10.07;2.88;;;13.20;99.90;;;;;;5053072;28;20172;-58
2023/03/24 08:44:20;;;;;;;9.38;2.85;;;13.10;99.90;;;;;;5053100;28;20187;-58
2023/03/24 08:46:45;;;;;;;8.98;3.00;;;13.20;99.90;;;;;;5053090;28;20175;-58
2023/03/24 08:49:11;;;;;;;11.57;3.00;;;13.20;99.90;;;;;;5053025;28;20621;-58
2023/03/24 08:51:37;;;;;;;15.35;3.10;;;13.30;99.90;;;;;;5053144;28;20261;-58
2023/03/24 08:54:02;;;;;;;11.55;3.13;;;13.30;99.90;;;;;;5052933;28;20598;-58
2023/03/24 08:56:29;;;;;;;8.93;2.88;;;13.40;99.90;;;;;;5051716;28;20528;-58
2023/03/24 08:58:54;;;;;;;8.63;2.67;;;13.30;99.90;;;;;;5051686;28;20537;-58
2023/03/24 09:01:21;;;;;;;11.57;3.33;;;13.30;99.90;;;;;;5052857;28;20182;-58
2023/03/24 09:03:47;;;;;;;9.77;2.70;;;13.30;99.90;;;;;;5052025;28;20263;-58
2023/03/24 09:06:14;;;;;;;7.32;2.28;;;13.40;99.90;;;;;;5052930;28;20191;-58
2023/03/24 09:08:40;;;;;;;9.18;2.53;;;13.60;99.90;;;;;;5052960;28;20176;-58
2023/03/24 09:11:12;;;;;;;9.65;2.42;;;13.90;99.90;;;;;;5052793;28;20562;-58
2023/03/24 09:13:37;;;;;;;12.75;2.55;;;13.90;99.90;;;;;;5052844;28;20187;-58
2023/03/24 09:16:03;;;;;;;8.25;2.70;;;13.80;99.90;;;;;;5052796;28;20180;-58
2023/03/24 09:18:29;;;;;;;6.55;2.38;;;13.80;99.90;;;;;;5052711;28;20195;-58
2023/03/24 09:20:55;;;;;;;5.75;2.40;;;13.80;99.90;;;;;;5053814;28;20375;-58
2023/03/24 09:23:21;;;;;;;9.48;2.65;;;14.00;99.90;;;;;;5056066;28;20650;-58
2023/03/24 09:25:52;;;;;;;10.20;2.97;;;14.20;99.90;;;;;;5056212;28;20182;-58
2023/03/24 09:28:19;;;;;;;8.30;2.88;;;14.50;99.90;;;;;;5056648;28;20202;-58
2023/03/24 09:30:45;;;;;;;8.10;2.85;;;14.70;99.90;;;;;;5055013;28;20230;-58
2023/03/24 09:33:12;;;;;;;7.85;2.75;;;14.80;99.90;;;;;;5056702;28;20184;-59
2023/03/24 09:35:38;;;;;;;9.32;2.70;;;14.60;99.90;;;;;;5055388;28;20219;-58
2023/03/24 09:38:04;;;;;;;12.98;3.03;;;14.50;99.90;;;;;;5056612;28;20214;-58
2023/03/24 09:40:34;;;;;;;8.20;2.28;;;14.50;99.90;;;;;;5056538;28;20567;-58
2023/03/24 09:43:13;;;;;;;10.75;2.30;;;14.50;99.90;;;;;;5056351;28;20168;-58
2023/03/24 09:45:58;;;;;;;8.40;2.47;;;14.60;99.90;;;;;;5056283;28;20175;-58
2023/03/24 09:48:42;;;;;;;6.53;2.17;;;14.80;99.90;;;;;;5056333;28;20176;-58
2023/03/24 09:51:28;;;;;;;8.18;2.80;;;15.10;99.90;;;;;;5056275;28;20548;-58
2023/03/24 09:54:01;;;;;;;11.45;2.45;;;15.20;99.90;;;;;;5056128;28;20609;-58
2023/03/24 09:56:30;;;;;;;8.25;2.45;;;15.40;99.90;;;;;;5056582;28;20543;-58
2023/03/24 09:59:05;;;;;;;6.88;2.35;;;15.60;99.90;;;;;;5056073;28;20245;-58
2023/03/24 10:01:33;;;;;;;8.50;2.30;;;15.40;99.90;;;;;;5056046;28;20179;-58
2023/03/24 10:03:59;;;;;;;6.60;2.50;;;15.30;99.90;;;;;;5055836;28;20175;-58
2023/03/24 10:06:30;;;;;;;9.23;2.50;;;15.30;99.90;;;;;;5055734;28;20552;-58
2023/03/24 10:09:35;;;;;;;7.30;2.13;;;14.80;99.90;;;;;;5056083;28;20246;-58
2023/03/24 10:12:16;;;;;;;9.52;2.38;;;14.40;99.90;;;;;;5013713;28;20224;-58
2023/03/24 10:15:19;;;;;;;6.93;2.15;;;14.00;99.90;;;;;;5013952;28;20184;-58
2023/03/24 10:18:05;;;;;;;8.35;2.28;;;13.70;99.90;;;;;;5048318;28;20179;-58
2023/03/24 10:20:36;;;;;;;7.97;2.42;;;13.60;99.90;;;;;;5055675;28;20183;-58
2023/03/24 10:23:35;;;;;;;8.88;2.50;;;13.50;99.90;;;;;;5054341;28;20227;-58
2023/03/24 10:26:03;;;;;;;9.07;2.40;;;13.40;99.90;;;;;;5054994;28;20568;-58
2023/03/24 10:28:58;;;;;;;9.90;2.75;;;13.40;99.90;;;;;;5055441;28;20163;-58
2023/03/24 10:31:30;;;;;;;7.05;2.50;;;13.30;99.90;;;;;;5046021;28;20215;-58
2023/03/24 10:33:56;;;;;;;8.73;2.65;;;13.20;99.90;;;;;;5054439;28;20202;-58
2023/03/24 10:36:26;;;;;;;10.02;2.80;;;13.20;99.90;;;;;;5055455;28;20624;-58
2023/03/24 10:38:52;;;;;;;7.07;2.40;;;12.90;99.90;;;;;;5054225;28;20211;-58
2023/03/24 10:41:28;;;;;;;6.55;2.17;;;12.30;99.90;;;;;;5055272;28;20176;-58
2023/03/24 10:43:56;;;;;;;5.60;2.10;;;12.00;99.90;;;;;;5054991;28;20167;-58
2023/03/24 10:46:25;;;;;;;6.35;2.55;;;11.90;99.90;;;;;;5055404;28;20183;-58
2023/03/24 10:48:53;;;;;;;4.72;1.80;;;11.90;99.90;;;;;;5055143;28;20179;-58
2023/03/24 10:51:25;;;;;;;5.70;2.00;;;12.00;99.90;;;;;;5055406;28;20298;-58
2023/03/24 10:54:08;;;;;;;8.45;2.17;;;11.90;99.90;;;;;;5055196;28;20171;-58
2023/03/24 10:56:56;;;;;;;7.13;2.42;;;11.90;99.90;;;;;;5055194;28;20179;-59
2023/03/24 10:59:43;;;;;;;5.93;2.00;;;12.60;99.90;;;;;;5055099;28;20182;-58
2023/03/24 11:02:08;;;;;;;6.93;2.58;;;13.20;99.90;;;;;;5054824;28;20505;-58
2023/03/24 11:04:39;;;;;;;6.53;2.38;;;13.30;99.90;;;;;;5054801;28;20178;-58
2023/03/24 11:07:16;;;;;;;7.35;2.33;;;13.20;99.90;;;;;;5055166;28;20182;-58
2023/03/24 11:09:44;;;;;;;6.43;2.30;;;13.00;99.90;;;;;;5054843;28;20182;-58
2023/03/24 11:12:29;;;;;;;7.03;3.15;;;12.70;99.90;;;;;;5054939;28;20181;-58
2023/03/24 11:15:22;;;;;;;8.95;2.58;;;12.60;99.90;;;;;;5054567;28;20172;-58
2023/03/24 11:18:07;;;;;;;9.15;2.50;;;12.50;99.90;;;;;;5052744;28;20232;-58
2023/03/24 11:20:34;;;;;;;7.45;2.53;;;12.40;99.90;;;;;;5054808;28;20532;-57
2023/03/24 11:23:29;;;;;;;7.47;2.58;;;12.20;99.90;;;;;;5054274;28;20238;-58
2023/03/24 11:26:20;;;;;;;7.85;2.47;;;12.30;99.90;;;;;;5050466;28;20188;-58
2023/03/24 11:28:52;;;;;;;4.85;2.10;;;12.40;99.90;;;;;;5054481;28;20655;-58
2023/03/24 11:31:29;;;;;;;7.25;2.28;;;12.90;99.90;;;;;;5054325;28;20552;-58
2023/03/24 11:33:57;;;;;;;4.88;2.33;;;13.50;99.90;;;;;;5054210;28;20183;-58
2023/03/24 11:36:29;;;;;;;6.63;2.05;;;13.60;99.90;;;;;;5054154;28;20595;-58
2023/03/24 11:39:03;;;;;;;6.43;2.30;;;13.70;99.90;;;;;;5054257;28;20206;-58
2023/03/24 11:41:29;;;;;;;6.45;2.42;;;13.90;99.90;;;;;;5054101;28;20179;-58
2023/03/24 11:44:16;;;;;;;10.85;2.75;;;14.10;99.90;;;;;;5053854;28;20198;-58
2023/03/24 11:46:43;;;;;;;5.82;2.25;;;14.40;99.90;;;;;;5053977;28;20258;-58
2023/03/24 11:49:15;;;;;;;6.97;1.95;;;14.40;99.90;;;;;;5054127;28;20175;-58
2023/03/24 11:51:43;;;;;;;7.05;2.22;;;14.00;99.90;;;;;;5053954;28;20551;-58
2023/03/24 11:54:17;;;;;;;8.15;2.17;;;13.80;99.90;;;;;;5053956;28;20175;-58
2023/03/24 11:57:13;;;;;;;6.53;2.28;;;13.80;99.90;;;;;;5052207;28;20229;-58
2023/03/24 11:59:56;;;;;;;7.47;2.17;;;13.60;99.90;;;;;;5044977;28;20187;-58
2023/03/24 12:02:40;;;;;;;6.07;2.08;;;13.30;99.90;;;;;;5053934;28;20191;-58
2023/03/24 12:05:44;;;;;;;5.50;1.92;;;13.30;99.90;;;;;;5053657;28;20168;-58
2023/03/24 12:08:28;;;;;;;8.38;2.58;;;13.90;99.90;;;;;;5053678;28;20163;-58
2023/03/24 12:11:20;;;;;;;8.07;2.50;;;14.30;99.90;;;;;;5052737;28;20344;-59
2023/03/24 12:13:48;;;;;;;7.53;2.25;;;14.40;99.90;;;;;;5052942;28;20187;-58
2023/03/24 12:16:39;;;;;;;8.15;2.17;;;14.40;99.90;;;;;;5053650;28;20502;-58
2023/03/24 12:19:23;;;;;;;8.30;2.65;;;14.30;99.90;;;;;;5053606;28;20613;-58
2023/03/24 12:22:38;;;;;;;7.20;2.45;;;14.10;99.90;;;;;;5053411;28;20213;-58
2023/03/24 12:25:27;;;;;;;12.75;2.80;;;14.30;99.90;;;;;;5011358;28;20295;-58
2023/03/24 12:28:05;;;;;;;6.78;2.55;;;14.60;99.90;;;;;;5013828;28;20181;-58
2023/03/24 12:30:58;;;;;;;6.18;1.95;;;14.80;99.90;;;;;;5013785;28;20279;-58
2023/03/24 12:33:49;;;;;;;4.65;1.90;;;14.80;99.90;;;;;;5013601;28;20179;-58
2023/03/24 12:36:52;;;;;;;4.97;1.70;;;15.10;99.90;;;;;;5013476;28;20554;-58
2023/03/24 12:39:31;;;;;;;5.47;1.80;;;15.40;99.90;;;;;;5013712;28;20239;-58
2023/03/24 12:42:15;;;;;;;4.75;2.03;;;15.60;99.90;;;;;;5013620;28;20238;-58
2023/03/24 12:45:06;;;;;;;4.63;1.60;;;15.80;99.90;;;;;;5013507;28;20243;-58
2023/03/24 12:48:01;;;;;;;5.38;1.92;;;15.90;99.90;;;;;;5013739;28;20176;-58
2023/03/24 12:50:41;;;;;;;6.13;1.85;;;15.90;99.90;;;;;;5013312;28;20212;-58
2023/03/24 12:53:52;;;;;;;6.78;1.77;;;15.80;99.90;;;;;;5013649;28;20176;-58
2023/03/24 12:56:33;;;;;;;5.32;1.88;;;15.50;99.90;;;;;;5012647;28;20630;-57
2023/03/24 12:59:05;;;;;;;7.43;1.90;;;14.80;99.90;;;;;;5013383;28;20184;-58
2023/03/24 13:01:38;;;;;;;5.85;1.60;;;14.70;99.90;;;;;;5013273;28;20581;-58
2023/03/24 13:04:19;;;;;;;6.82;1.92;;;14.60;99.90;;;;;;5013532;28;20168;-58
2023/03/24 13:07:05;;;;;;;7.07;1.80;;;14.20;99.90;;;;;;5013464;28;20180;-58
2023/03/24 13:09:58;;;;;;;6.18;1.95;;;14.00;99.90;;;;;;5013237;28;20179;-58
2023/03/24 13:12:49;;;;;;;6.60;2.00;;;14.30;99.90;;;;;;5013363;28;20185;-58